Time;durP1;ratioP1;P1;durP2;ratioP2;P2;SDS_P1;SDS_P2;PMS_P1;PMS_P2;Temp;Humidity;BMP_temperature;BMP_pressure;BME280_temperature;BME280_humidity;BME280_pressure;Samples;Min_cycle;Max_cycle;Signal;HPM_P1;HPM_P2
2022/06/17 00:01:36;;;;;;;;;;;19.10;99.90;;;18.10;57.75;96144.38;10474474;28;2031;-77
2022/06/17 00:06:39;;;;;;;;;;;19.10;99.40;;;18.02;58.25;96148.66;10492534;28;1961;-78
2022/06/17 00:11:44;;;;;;;;;;;19.00;99.80;;;17.85;60.45;96132.22;10476362;28;2124;-77
2022/06/17 00:16:48;;;;;;;;;;;18.90;99.90;;;17.75;60.31;96137.91;10478295;28;1999;-78
2022/06/17 00:21:52;;;;;;;;;;;18.70;99.90;;;17.77;59.84;96122.91;10480771;28;2009;-78
2022/06/17 00:26:54;;;;;;;;;;;18.70;99.90;;;17.70;59.78;96122.53;10477624;28;1990;-79
2022/06/17 00:31:58;;;;;;;;;;;18.60;99.90;;;17.60;60.83;96136.34;10473498;28;1932;-78
2022/06/17 00:37:02;;;;;;;;;;;18.60;99.90;;;17.42;60.84;96143.56;10469815;28;2114;-79
2022/06/17 00:42:05;;;;;;;;;;;18.50;99.90;;;17.40;61.37;96155.88;10512200;28;2051;-78
2022/06/17 00:47:08;;;;;;;;;;;18.30;99.90;;;17.24;62.88;96142.66;10529501;28;1879;-78
2022/06/17 00:52:11;;;;;;;;;;;18.30;99.90;;;17.19;64.58;96153.63;10484243;28;2011;-77
2022/06/17 00:57:15;;;;;;;;;;;18.20;99.90;;;16.99;64.67;96141.31;10474205;28;1979;-79
2022/06/17 01:02:17;;;;;;;;;;;18.00;99.90;;;16.94;65.91;96154.19;10473969;28;2050;-78
2022/06/17 01:07:21;;;;;;;;;;;17.90;99.90;;;16.89;65.80;96157.00;10503789;28;1951;-78
2022/06/17 01:12:25;;;;;;;;;;;17.80;99.90;;;16.86;67.34;96163.03;10516717;28;1958;-78
2022/06/17 01:17:28;;;;;;;;;;;17.80;99.90;;;16.84;67.72;96170.69;10487408;28;1887;-79
2022/06/17 01:22:32;;;;;;;;;;;17.60;99.90;;;16.84;67.62;96176.13;10480327;28;2042;-79
2022/06/17 01:27:37;;;;;;;;;;;17.70;99.90;;;16.76;68.18;96191.22;10490336;28;2033;-79
2022/06/17 01:32:45;;;;;;;;;;;17.70;99.90;;;16.68;67.32;96198.13;10481436;28;2022;-78
2022/06/17 01:37:49;;;;;;;;;;;17.50;99.90;;;16.55;67.24;96195.41;10490961;28;1958;-78
2022/06/17 01:42:52;;;;;;;;;;;17.50;99.90;;;16.54;67.27;96186.47;10482264;28;2025;-78
2022/06/17 01:47:55;;;;;;;;;;;17.50;99.90;;;16.43;67.47;96196.72;10495628;28;1895;-79
2022/06/17 01:52:58;;;;;;;;;;;17.40;99.90;;;16.41;67.70;96198.09;10484429;28;1975;-79
2022/06/17 01:58:01;;;;;;;;;;;17.40;99.90;;;16.37;68.00;96189.78;10491820;28;2361;-78
2022/06/17 02:03:04;;;;;;;;;;;17.40;99.90;;;16.31;67.29;96180.13;10482909;28;1990;-79
2022/06/17 02:08:11;;;;;;;;;;;17.30;99.90;;;16.28;67.13;96179.91;10528439;28;2053;-78
2022/06/17 02:13:14;;;;;;;;;;;17.30;99.90;;;16.16;68.09;96173.06;10502340;28;1970;-78
2022/06/17 02:18:17;;;;;;;;;;;17.20;99.90;;;16.10;67.98;96168.84;10482065;28;1971;-78
2022/06/17 02:23:22;;;;;;;;;;;17.10;99.90;;;16.11;68.68;96158.81;10471847;28;1994;-78
2022/06/17 02:28:25;;;;;;;;;;;17.00;99.90;;;15.97;70.21;96158.78;10496276;28;1897;-77
2022/06/17 02:33:27;;;;;;;;;;;17.00;99.90;;;15.88;70.22;96147.00;10484198;28;2010;-78
2022/06/17 02:38:31;;;;;;;;;;;16.90;99.90;;;15.83;71.19;96152.50;10478099;28;2025;-78
2022/06/17 02:43:34;;;;;;;;;;;16.80;99.90;;;15.71;71.66;96154.88;10478915;28;1986;-78
2022/06/17 02:48:37;;;;;;;;;;;16.80;99.90;;;15.59;72.47;96148.00;10486541;28;2053;-78
2022/06/17 02:53:41;;;;;;;;;;;16.70;99.90;;;15.61;73.19;96139.56;10480901;28;1910;-78
2022/06/17 02:58:44;;;;;;;;;;;16.60;99.90;;;15.57;72.33;96139.34;10475679;28;2034;-78
2022/06/17 03:03:47;;;;;;;;;;;16.60;99.90;;;15.61;72.73;96136.88;10474931;28;1918;-78
2022/06/17 03:08:50;;;;;;;;;;;16.60;99.90;;;15.63;73.01;96121.13;10478967;28;1962;-78
2022/06/17 03:13:53;;;;;;;;;;;16.80;99.90;;;15.60;71.88;96138.78;10475979;28;1953;-78
2022/06/17 03:18:56;;;;;;;;;;;16.70;99.90;;;15.54;72.03;96155.41;10477326;28;1950;-78
2022/06/17 03:23:59;;;;;;;;;;;16.50;99.90;;;15.52;72.93;96163.81;10479116;28;1955;-78
2022/06/17 03:29:02;;;;;;;;;;;16.40;99.90;;;15.45;73.40;96174.22;10480786;28;1925;-78
2022/06/17 03:34:06;;;;;;;;;;;16.40;99.90;;;15.29;74.42;96159.31;10474965;28;1974;-78
2022/06/17 03:39:09;;;;;;;;;;;16.30;99.90;;;15.23;74.96;96182.16;10478152;28;2010;-78
2022/06/17 03:44:12;;;;;;;;;;;17.70;99.90;;;15.28;75.56;96187.50;10486449;28;1958;-78
2022/06/17 03:49:16;;;;;;;;;;;;;;;15.46;74.94;96202.94;10481431;28;1935;-79
2022/06/17 03:54:20;;;;;;;;;;;;;;;15.77;73.73;96200.56;10481147;28;1907;-78
2022/06/17 03:59:24;;;;;;;;;;;;;;;16.13;72.17;96206.19;10474783;28;1990;-78
2022/06/17 04:04:27;;;;;;;;;;;;;;;16.48;70.80;96207.47;10478925;28;2018;-78
2022/06/17 04:09:31;;;;;;;;;;;;;;;16.89;68.70;96200.44;10470940;28;1956;-77
2022/06/17 04:14:35;;;;;;;;;;;;;;;17.12;65.76;96194.00;10473999;28;2175;-77
2022/06/17 04:19:39;;;;;;;;;;;;;;;17.41;65.73;96179.22;10479981;28;2001;-78
2022/06/17 04:24:43;;;;;;;;;;;;;;;17.78;64.50;96181.63;10470660;28;1980;-77
2022/06/17 04:29:46;;;;;;;;;;;;;;;17.87;62.17;96191.75;10475924;28;1959;-77
2022/06/17 04:34:50;;;;;;;;;;;;;;;18.06;61.49;96195.84;10471996;28;1997;-77
2022/06/17 04:39:54;;;;;;;;;;;;;;;18.15;60.27;96198.66;10472438;28;2343;-78
2022/06/17 04:45:03;;;;;;;;;;;;;;;18.60;59.27;96206.72;10481993;28;1928;-78
2022/06/17 04:50:07;;;;;;;;;;;;;;;18.80;57.67;96219.00;10476124;28;1908;-77
2022/06/17 04:55:10;;;;;;;;;;;;;;;18.80;58.74;96230.69;10479209;28;1943;-78
2022/06/17 05:00:13;;;;;;;;;;;;;;;18.80;57.92;96240.78;10479487;28;1931;-78
2022/06/17 05:05:17;;;;;;;;;;;;;;;19.08;57.31;96252.25;10468480;28;1963;-77
2022/06/17 05:10:20;;;;;;;;;;;;;;;18.78;53.77;96265.63;10471372;28;2002;-76
2022/06/17 05:15:24;;;;;;;;;;;;;;;18.88;55.40;96261.78;10468365;28;1955;-74
2022/06/17 05:20:27;;;;;;;;;;;;;;;18.45;54.56;96277.88;10474803;28;1990;-75
2022/06/17 05:25:32;;;;;;;;;;;;;;;18.81;53.68;96270.41;10469519;28;2026;-74
2022/06/17 05:30:35;;;;;;;;;;;;;;;19.48;52.57;96274.81;10472351;28;1959;-74
2022/06/17 05:35:38;;;;;;;;;;;;;;;19.94;51.83;96287.88;10473836;28;2032;-73
2022/06/17 05:40:41;;;;;;;;;;;;;;;20.50;48.08;96286.06;10475779;28;2043;-75
2022/06/17 05:45:45;;;;;;;;;;;;;;;20.77;49.23;96289.53;10476598;28;1899;-75
2022/06/17 05:50:49;;;;;;;;;;;;;;;20.82;48.80;96283.91;10477053;28;2011;-76
2022/06/17 05:55:54;;;;;;;;;;;;;;;21.49;47.70;96288.59;10470126;28;2071;-76
2022/06/17 06:00:58;;;;;;;;;;;;;;;20.63;46.75;96289.75;10474310;28;2037;-74
2022/06/17 06:06:01;;;;;;;;;;;;;;;20.90;46.48;96296.72;10479535;28;1895;-75
2022/06/17 06:11:04;;;;;;;;;;;;;;;20.79;48.13;96312.66;10488048;28;1967;-75
2022/06/17 06:16:08;;;;;;;;;;;;;;;21.24;45.77;96316.84;10479470;28;2118;-75
2022/06/17 06:21:12;;;;;;;;;;;;;;;21.35;46.71;96320.03;10529781;28;1891;-74
2022/06/17 06:26:15;;;;;;;;;;;;;;;21.31;45.63;96319.88;10485736;28;1956;-75
2022/06/17 06:31:18;;;;;;;;;;;;;;;21.77;44.46;96321.75;10478085;28;1972;-76
2022/06/17 06:36:22;;;;;;;;;;;;;;;21.60;45.23;96335.53;10487674;28;1841;-75
2022/06/17 06:41:26;;;;;;;;;;;;;;;21.52;46.60;96331.69;10474471;28;1998;-75
2022/06/17 06:46:30;;;;;;;;;;;;;;;21.88;44.98;96329.53;10485135;28;2077;-75
2022/06/17 06:51:33;;;;;;;;;;;;;;;21.78;46.35;96336.22;10474219;28;1994;-75
2022/06/17 06:56:37;;;;;;;;;;;;;;;22.26;46.54;96340.41;10481696;28;1986;-75
2022/06/17 07:01:40;;;;;;;;;;;;;;;22.72;44.21;96344.03;10489726;28;2015;-74
2022/06/17 07:06:44;;;;;;;;;;;;;;;22.54;44.96;96348.88;10477610;28;1864;-74
2022/06/17 07:11:48;;;;;;;;;;;;;;;22.75;43.54;96344.13;10477314;28;1938;-74
2022/06/17 07:16:51;;;;;;;;;;;;;;;22.97;43.70;96351.22;10475306;28;2053;-74
2022/06/17 07:21:55;;;;;;;;;;;;;;;22.79;43.65;96347.03;10469768;28;1959;-75
2022/06/17 07:26:59;;;;;;;;;;;;;;;23.62;42.24;96344.00;10475548;28;1978;-75
2022/06/17 07:32:02;;;;;;;;;;;;;;;23.82;41.11;96345.00;10474677;28;2007;-75
2022/06/17 07:42:39;;;;;;;;;;;;;;;23.31;41.70;96343.72;10461281;28;1987;-74
2022/06/17 07:47:43;;;;;;;;;;;;;;;23.15;41.33;96347.13;10473921;28;1993;-75
2022/06/17 07:52:46;;;;;;;;;;;;;;;23.39;42.13;96351.03;10470309;28;1954;-75
2022/06/17 07:57:49;;;;;;;;;;;;;;;23.32;42.41;96351.59;10476025;28;2044;-74
2022/06/17 08:02:52;;;;;;;;;;;;;;;23.09;42.42;96344.94;10475207;28;1982;-74
2022/06/17 08:07:56;;;;;;;;;;;;;;;23.08;42.36;96352.34;10473199;28;2188;-75
2022/06/17 08:13:00;;;;;;;;;;;;;;;23.79;41.80;96355.84;10469658;28;1989;-75
2022/06/17 08:18:03;;;;;;;;;;;;;;;24.08;40.01;96366.59;10486743;28;2016;-74
2022/06/17 08:23:07;;;;;;;;;;;;;;;24.12;40.91;96362.00;10473324;28;2030;-74
2022/06/17 08:28:10;;;;;;;;;;;;;;;24.24;40.39;96361.97;10475529;28;1970;-75
2022/06/17 08:33:13;;;;;;;;;;;25.40;99.90;;;24.33;40.55;96366.53;10468810;28;1975;-75
2022/06/17 08:38:38;;;;;;;;;;;24.60;92.90;;;24.40;40.02;96364.03;10474461;28;2081;-74
2022/06/17 08:43:41;;;;;;;;;;;24.80;89.90;;;24.56;38.99;96370.38;10471167;28;2018;-73
2022/06/17 08:48:44;;;;;;;;;;;25.00;91.20;;;23.68;40.96;96374.75;10472118;28;1915;-75
2022/06/17 08:53:48;;;;;;;;;;;24.80;88.60;;;24.05;39.85;96389.25;10475195;28;1914;-75
2022/06/17 08:58:50;;;;;;;;;;;24.50;87.50;;;23.75;41.60;96387.91;10473897;28;1849;-74
2022/06/17 09:03:53;;;;;;;;;;;24.40;88.40;;;24.36;41.93;96390.56;10474950;28;2176;-74
2022/06/17 09:09:01;;;;;;;;;;;24.80;89.60;;;24.18;40.28;96393.59;10471506;28;2001;-74
2022/06/17 09:14:04;;;;;;;;;;;25.00;87.50;;;24.44;38.41;96395.97;10474335;28;2255;-74
2022/06/17 09:19:08;;;;;;;;;;;25.10;85.70;;;24.12;39.68;96394.16;10470184;28;1904;-74
2022/06/17 09:24:11;;;;;;;;;;;24.80;86.30;;;23.32;40.46;96395.50;10476335;28;2067;-75
2022/06/17 09:29:14;;;;;;;;;;;24.60;85.60;;;23.19;40.32;96408.38;10465323;28;1999;-74
2022/06/17 09:34:17;;;;;;;;;;;24.20;86.00;;;22.95;41.67;96397.34;10474526;28;2031;-75
2022/06/17 09:39:21;;;;;;;;;;;23.90;87.20;;;23.39;40.10;96405.91;10496989;28;1859;-75
2022/06/17 09:44:24;;;;;;;;;;;24.00;87.10;;;23.45;39.76;96388.06;10479493;28;1819;-74
2022/06/17 09:49:28;;;;;;;;;;;24.00;86.10;;;23.32;38.73;96397.44;10470987;28;1993;-75
2022/06/17 09:54:31;;;;;;;;;;;24.10;84.80;;;23.29;40.76;96392.66;10475977;28;1985;-75
2022/06/17 09:59:34;;;;;;;;;;;24.20;86.60;;;23.56;38.59;96394.72;10482446;28;1846;-75
2022/06/17 10:04:37;;;;;;;;;;;24.30;85.00;;;23.54;37.61;96409.91;10476443;28;1711;-75
2022/06/17 10:09:40;;;;;;;;;;;24.40;83.40;;;23.67;37.01;96401.41;10476765;28;1998;-74
2022/06/17 10:14:44;;;;;;;;;;;24.30;83.10;;;23.69;36.90;96409.28;10474536;28;1987;-76
2022/06/17 10:19:47;;;;;;;;;;;24.40;82.60;;;24.20;37.54;96399.53;10488062;28;1920;-74
2022/06/17 10:24:52;;;;;;;;;;;24.70;84.10;;;24.60;37.74;96407.00;10480610;28;1893;-74
2022/06/17 10:29:55;;;;;;;;;;;25.20;83.90;;;23.84;35.18;96388.56;10517898;28;1847;-75
2022/06/17 10:34:59;;;;;;;;;;;24.90;80.50;;;24.51;36.85;96389.88;10479405;28;1979;-74
2022/06/17 10:40:02;;;;;;;;;;;;;;;25.87;32.42;96384.06;10476497;28;1800;-76
2022/06/17 10:45:05;;;;;;;;;;;;;;;26.02;29.03;96373.38;10480579;28;1780;-75
2022/06/17 10:50:12;;;;;;;;;;;27.70;99.90;;;25.90;29.64;96373.50;10478193;28;1804;-74
2022/06/17 10:55:15;;;;;;;;;;;;;;;25.98;28.38;96372.50;10475987;28;1935;-74
2022/06/17 11:00:20;;;;;;;;;;;;;;;26.27;30.42;96362.91;10474618;28;1890;-75
2022/06/17 11:05:23;;;;;;;;;;;;;;;25.92;30.10;96369.22;10477436;28;1892;-75
2022/06/17 11:10:26;;;;;;;;;;;;;;;26.17;29.41;96375.31;10476313;28;1868;-75
2022/06/17 11:15:30;;;;;;;;;;;;;;;26.66;28.93;96361.81;10473578;28;1955;-75
2022/06/17 11:20:34;;;;;;;;;;;;;;;26.89;29.84;96364.59;10475088;28;1843;-75
2022/06/17 11:25:57;;;;;;;;;;;;;;;26.66;28.10;96370.09;10479972;28;1860;-75
2022/06/17 11:31:00;;;;;;;;;;;;;;;26.20;29.41;96363.53;10492607;28;1866;-75
2022/06/17 11:36:04;;;;;;;;;;;;;;;25.93;31.85;96362.56;10476141;28;1913;-75
2022/06/17 11:41:08;;;;;;;;;;;;;;;25.53;30.20;96360.81;10474685;28;1808;-75
2022/06/17 11:46:12;;;;;;;;;;;;;;;25.23;31.11;96356.88;10475336;28;1886;-75
2022/06/17 11:51:16;;;;;;;;;;;;;;;25.29;31.83;96348.00;10477538;28;1840;-75
2022/06/17 11:56:19;;;;;;;;;;;;;;;25.31;31.65;96342.94;10469796;28;1918;-74
2022/06/17 12:01:39;;;;;;;;;;;;;;;25.73;31.35;96338.88;10472270;28;1865;-74
2022/06/17 12:06:42;;;;;;;;;;;;;;;25.84;32.85;96343.47;10473173;28;1841;-74
2022/06/17 12:11:46;;;;;;;;;;;;;;;25.99;29.58;96338.28;10475836;28;1907;-75
2022/06/17 12:16:49;;;;;;;;;;;;;;;26.08;29.49;96327.84;10466052;28;1914;-75
2022/06/17 12:22:14;;;;;;;;;;;;;;;25.86;28.05;96332.09;10472944;28;1855;-75
2022/06/17 12:27:17;;;;;;;;;;;;;;;26.13;28.57;96335.84;10479136;28;1868;-75
2022/06/17 12:32:21;;;;;;;;;;;;;;;25.83;28.48;96338.31;10467623;28;1919;-76
2022/06/17 12:37:25;;;;;;;;;;;;;;;25.79;29.66;96326.44;10474725;28;2305;-75
2022/06/17 12:42:29;;;;;;;;;;;;;;;26.21;27.55;96329.34;10485291;28;1859;-75
2022/06/17 12:47:32;;;;;;;;;;;;;;;26.65;28.55;96326.31;10475207;28;1797;-76
2022/06/17 12:58:03;;;;;;;;;;;;;;;26.41;29.77;96324.66;10474521;28;2189;-75
2022/06/17 13:03:07;;;;;;;;;;;;;;;26.50;30.42;96327.19;10469276;28;1907;-75
2022/06/17 13:08:10;;;;;;;;;;;;;;;26.62;30.56;96307.75;10471866;28;1877;-74
2022/06/17 13:13:14;;;;;;;;;;;;;;;26.07;30.26;96315.25;10472159;28;1917;-75
2022/06/17 13:18:17;;;;;;;;;;;;;;;26.59;31.78;96308.47;10469925;28;1799;-74
2022/06/17 13:23:21;;;;;;;;;;;;;;;26.78;28.83;96310.41;10469033;28;2228;-75
2022/06/17 13:28:27;;;;;;;;;;;;;;;27.19;27.46;96309.63;10475909;28;2284;-75
2022/06/17 13:33:38;;;;;;;;;;;;;;;27.40;28.91;96302.84;10470950;28;1977;-76
2022/06/17 13:38:41;;;;;;;;;;;28.10;71.90;;;27.08;28.17;96303.13;10476449;28;1774;-76
2022/06/17 13:43:44;;;;;;;;;;;28.10;70.30;;;27.38;27.85;96300.47;10466468;28;1763;-75
2022/06/17 13:48:48;;;;;;;;;;;28.20;70.80;;;27.02;27.58;96299.03;10474439;28;1792;-75
2022/06/17 13:53:51;;;;;;;;;;;28.00;69.80;;;26.66;29.18;96303.13;10481343;28;1911;-75
2022/06/17 13:58:54;;;;;;;;;;;27.70;70.90;;;26.64;30.44;96317.25;10470956;28;1823;-75
2022/06/17 14:04:02;;;;;;;;;;;27.60;72.30;;;26.40;30.36;96304.59;10471192;28;1881;-74
2022/06/17 14:09:05;;;;;;;;;;;27.40;72.30;;;27.18;29.33;96297.00;10475025;28;2189;-75
2022/06/17 14:14:28;;;;;;;;;;;27.70;72.60;;;27.81;29.72;96303.94;10466725;28;1984;-75
2022/06/17 14:19:30;;;;;;;;;;;28.30;73.10;;;26.87;28.68;96298.00;10473603;28;1969;-75
2022/06/17 14:24:34;;;;;;;;;;;28.10;70.30;;;26.59;28.60;96298.25;10479257;28;1901;-75
2022/06/17 14:29:37;;;;;;;;;;;27.70;70.10;;;26.33;29.94;96289.81;10477084;28;1974;-75
2022/06/17 14:34:40;;;;;;;;;;;27.50;71.40;;;25.98;29.74;96296.19;10478893;28;1902;-76
2022/06/17 14:39:43;;;;;;;;;;;27.20;71.10;;;26.74;28.61;96284.72;10504083;28;1901;-75
2022/06/17 14:44:46;;;;;;;;;;;27.50;70.60;;;26.73;29.36;96291.41;10489136;28;1839;-75
2022/06/17 14:49:50;;;;;;;;;;;27.70;70.80;;;27.24;29.17;96286.44;10480936;28;1737;-76
2022/06/17 14:54:53;;;;;;;;;;;27.90;71.50;;;27.04;28.79;96290.38;10482297;28;1985;-73
2022/06/17 14:59:55;;;;;;;;;;;28.00;71.30;;;26.79;29.81;96281.69;10477682;28;1829;-76
2022/06/17 15:04:59;;;;;;;;;;;28.00;71.50;;;26.98;29.11;96280.84;10486835;28;1804;-75
2022/06/17 15:10:02;;;;;;;;;;;27.90;70.90;;;27.21;29.07;96276.13;10474552;28;2005;-76
2022/06/17 15:15:05;;;;;;;;;;;28.00;71.70;;;26.87;28.58;96269.59;10474698;28;1979;-75
2022/06/17 15:20:08;;;;;;;;;;;28.10;70.30;;;26.69;29.20;96263.75;10478973;28;1744;-74
2022/06/17 15:25:11;;;;;;;;;;;27.80;70.60;;;27.34;28.51;96260.97;10476109;28;1903;-74
2022/06/17 15:30:15;;;;;;;;;;;28.00;71.20;;;27.24;26.52;96253.31;10475454;28;1937;-75
2022/06/17 15:35:18;;;;;;;;;;;28.00;68.20;;;27.53;24.26;96256.50;10474579;28;1917;-74
2022/06/17 15:40:22;;;;;;;;;;;28.30;65.30;;;27.65;25.05;96262.63;10467609;28;1899;-76
2022/06/17 15:45:25;;;;;;;;;;;28.50;66.20;;;27.68;26.95;96258.34;10467255;28;1722;-76
2022/06/17 15:50:28;;;;;;;;;;;28.50;67.90;;;27.34;28.29;96277.53;10469900;28;1817;-75
2022/06/17 15:55:32;;;;;;;;;;;28.50;69.30;;;27.34;28.49;96260.16;10472673;28;2181;-75
2022/06/17 16:00:55;;;;;;;;;;;28.20;69.90;;;27.59;28.76;96258.59;10474094;28;1762;-75
2022/06/17 16:06:00;;;;;;;;;;;28.40;70.60;;;27.11;28.64;96262.97;10462078;28;1923;-74
2022/06/17 16:11:04;;;;;;;;;;;28.10;70.00;;;26.84;29.07;96268.38;10475145;28;1911;-75
2022/06/17 16:16:08;;;;;;;;;;;27.90;69.60;;;26.76;29.11;96257.59;10476442;28;1910;-75
2022/06/17 16:21:11;;;;;;;;;;;27.70;70.20;;;26.67;28.42;96257.81;10474120;28;1952;-75
2022/06/17 16:26:14;;;;;;;;;;;27.60;69.20;;;25.85;28.28;96254.19;10474123;28;1822;-74
2022/06/17 16:31:17;;;;;;;;;;;27.30;68.60;;;26.22;28.29;96256.53;10466475;28;2183;-74
2022/06/17 16:36:21;;;;;;;;;;;27.00;69.80;;;25.78;28.91;96253.25;10462175;28;2047;-75
2022/06/17 16:46:45;;;;;;;;;;;26.70;69.20;;;25.78;29.47;96254.03;10464213;28;2151;-75
2022/06/17 16:51:48;;;;;;;;;;;26.60;70.00;;;25.84;29.27;96249.84;10469062;28;2868;-75
2022/06/17 16:56:52;;;;;;;;;;;26.60;70.40;;;25.41;29.86;96255.53;10473858;28;1985;-74
2022/06/17 17:01:55;;;;;;;;;;;26.40;70.50;;;25.04;30.97;96262.09;10484295;28;1981;-76
2022/06/17 17:07:00;;;;;;;;;;;26.10;71.70;;;25.00;30.69;96265.88;10482107;28;1831;-75
2022/06/17 17:12:02;;;;;;;;;;;25.90;71.20;;;24.86;30.18;96265.53;10464784;28;1895;-75
2022/06/17 17:17:06;;;;;;;;;;;25.70;70.80;;;24.99;30.32;96272.53;10472214;28;2442;-74
2022/06/17 17:22:13;;;;;;;;;;;25.70;70.90;;;25.10;30.70;96284.66;10464174;28;1939;-75
2022/06/17 17:27:16;;;;;;;;;;;25.80;71.60;;;25.10;30.29;96278.34;10473107;28;1867;-75
2022/06/17 17:32:22;;;;;;;;;;;25.90;70.80;;;24.82;30.49;96284.69;10469833;28;2013;-75
2022/06/17 17:37:26;;;;;;;;;;;25.70;70.60;;;24.74;30.70;96283.69;10466524;28;2065;-75
2022/06/17 17:42:29;;;;;;;;;;;25.60;71.20;;;24.64;31.38;96284.22;10469667;28;2265;-74
2022/06/17 17:47:32;;;;;;;;;;;25.50;71.80;;;24.49;31.43;96282.22;10475633;28;1972;-74
2022/06/17 17:52:35;;;;;;;;;;;25.40;72.10;;;24.34;31.96;96288.47;10488684;28;1921;-74
2022/06/17 17:57:38;;;;;;;;;;;25.30;72.40;;;24.33;32.01;96295.09;10473410;28;2284;-75
2022/06/17 18:02:41;;;;;;;;;;;25.20;72.80;;;24.24;32.11;96290.56;10474045;28;1839;-76
2022/06/17 18:07:45;;;;;;;;;;;25.10;73.00;;;24.10;32.76;96284.63;10491214;28;1803;-75
2022/06/17 18:12:49;;;;;;;;;;;25.00;73.50;;;24.12;32.44;96284.31;10473980;28;1848;-74
2022/06/17 18:17:55;;;;;;;;;;;25.00;73.50;;;23.96;33.46;96298.75;10483736;28;1969;-74
2022/06/17 18:23:00;;;;;;;;;;;24.90;74.30;;;23.87;34.28;96291.81;10472161;28;1896;-75
2022/06/17 18:28:03;;;;;;;;;;;24.80;75.20;;;23.64;34.80;96286.81;10491019;28;1825;-75
2022/06/17 18:33:06;;;;;;;;;;;24.60;75.60;;;23.54;34.70;96286.44;10515877;28;1753;-74
2022/06/17 18:38:09;;;;;;;;;;;24.50;75.50;;;23.43;35.14;96284.16;10488151;28;1992;-75
2022/06/17 18:43:12;;;;;;;;;;;24.40;75.90;;;23.33;35.44;96287.38;10477991;28;1793;-74
2022/06/17 18:48:15;;;;;;;;;;;24.30;76.40;;;23.24;35.58;96283.16;10477025;28;1906;-74
2022/06/17 18:53:19;;;;;;;;;;;24.20;76.50;;;23.03;36.22;96273.09;10498236;28;1866;-74
2022/06/17 18:58:22;;;;;;;;;;;24.10;76.80;;;22.87;36.46;96283.09;10472598;28;1891;-74
2022/06/17 19:03:27;;;;;;;;;;;23.90;76.90;;;22.73;36.81;96293.56;10474642;28;1824;-74
2022/06/17 19:19:12;;;;;;;;;;;23.50;78.30;;;22.21;38.85;96294.06;10470738;28;1872;-75
2022/06/17 19:24:15;;;;;;;;;;;23.30;79.30;;;22.16;38.67;96299.75;10469826;28;1884;-74
2022/06/17 19:29:38;;;;;;;;;;;23.20;79.20;;;22.06;38.83;96301.72;10472617;28;1916;-75
2022/06/17 19:34:42;;;;;;;;;;;23.10;79.60;;;21.96;39.63;96315.81;10469811;28;1910;-75
2022/06/17 19:39:44;;;;;;;;;;;23.00;80.10;;;21.74;39.53;96310.66;10472705;28;1863;-76
2022/06/17 19:44:48;;;;;;;;;;;22.90;80.20;;;21.58;40.09;96313.97;10469111;28;1797;-76
2022/06/17 19:49:51;;;;;;;;;;;22.70;80.90;;;21.43;39.58;96320.00;10469407;28;1869;-75
2022/06/17 19:54:54;;;;;;;;;;;22.60;80.20;;;21.37;42.55;96328.72;10475541;28;1902;-75
2022/06/17 19:59:57;;;;;;;;;;;22.50;82.10;;;21.23;42.08;96326.19;10467829;28;1812;-74
2022/06/17 20:05:00;;;;;;;;;;;22.40;82.50;;;21.10;43.74;96327.19;10469525;28;1876;-75
2022/06/17 20:10:04;;;;;;;;;;;22.20;83.70;;;21.00;44.86;96334.63;10467212;28;1842;-75
2022/06/17 20:15:06;;;;;;;;;;;22.10;85.40;;;20.93;44.94;96337.06;10474493;28;1928;-75
2022/06/17 20:20:09;;;;;;;;;;;22.00;85.50;;;20.89;44.43;96344.31;10472199;28;1920;-74
2022/06/17 20:25:12;;;;;;;;;;;21.90;85.40;;;20.71;46.22;96340.00;10470639;28;1872;-75
2022/06/17 20:30:15;;;;;;;;;;;21.90;86.60;;;20.59;46.57;96342.59;10466084;28;1877;-74
2022/06/17 20:35:18;;;;;;;;;;;21.70;86.90;;;20.62;47.65;96339.25;10469109;28;1910;-75
2022/06/17 20:40:21;;;;;;;;;;;21.60;88.10;;;20.63;47.29;96336.19;10474985;28;1891;-75
2022/06/17 20:50:45;;;;;;;;;;;21.60;87.70;;;20.61;46.43;96337.59;10470244;28;1893;-75
2022/06/17 20:55:49;;;;;;;;;;;21.60;87.70;;;20.48;46.22;96334.72;10473854;28;1909;-74
2022/06/17 21:00:53;;;;;;;;;;;21.50;87.20;;;20.42;46.23;96321.53;10473417;28;1842;-74
2022/06/17 21:05:57;;;;;;;;;;;21.50;87.40;;;20.33;47.73;96324.28;10474653;28;1869;-74
2022/06/17 21:11:00;;;;;;;;;;;21.30;88.50;;;20.24;46.93;96326.25;10465887;28;1929;-75
2022/06/17 21:16:03;;;;;;;;;;;21.30;87.90;;;20.15;46.72;96333.59;10474552;28;1910;-75
2022/06/17 21:21:06;;;;;;;;;;;21.20;87.70;;;20.07;47.36;96331.69;10469681;28;1817;-75
2022/06/17 21:26:09;;;;;;;;;;;21.10;88.10;;;20.14;48.88;96342.94;10469823;28;1935;-75
2022/06/17 21:31:12;;;;;;;;;;;21.10;89.80;;;19.89;48.55;96330.88;10481732;28;1826;-75
2022/06/17 21:36:16;;;;;;;;;;;21.00;89.30;;;19.66;49.69;96330.22;10476953;28;1973;-74
2022/06/17 21:41:19;;;;;;;;;;;20.80;90.10;;;19.49;49.98;96327.41;10479549;28;1849;-75
2022/06/17 21:46:23;;;;;;;;;;;20.60;90.30;;;19.48;51.42;96323.06;10480169;28;1850;-74
2022/06/17 21:51:26;;;;;;;;;;;20.50;91.40;;;19.31;50.55;96311.00;10473178;28;1794;-74
2022/06/17 21:56:33;;;;;;;;;;;20.50;90.90;;;19.21;50.47;96311.28;10477240;28;1974;-74
2022/06/17 22:01:36;;;;;;;;;;;20.40;90.80;;;19.10;51.18;96315.41;10475868;28;1856;-74
2022/06/17 22:06:39;;;;;;;;;;;20.20;91.20;;;19.09;51.52;96314.63;10470815;28;1790;-74
2022/06/17 22:12:01;;;;;;;;;;;20.10;91.60;;;19.06;51.75;96314.44;10484632;28;1846;-74
2022/06/17 22:17:04;;;;;;;;;;;20.10;92.20;;;19.00;51.27;96312.97;10479559;28;1906;-75
2022/06/17 22:22:07;;;;;;;;;;;20.00;91.50;;;18.87;51.54;96315.47;10478657;28;1866;-74
2022/06/17 22:27:10;;;;;;;;;;;20.00;91.70;;;18.81;52.42;96322.16;10480189;28;1841;-75
2022/06/17 22:32:13;;;;;;;;;;;19.80;92.30;;;18.71;52.73;96308.84;10476401;28;1825;-74
2022/06/17 22:37:17;;;;;;;;;;;19.80;92.70;;;18.66;53.42;96311.66;10484246;28;1972;-75
2022/06/17 22:42:21;;;;;;;;;;;19.70;93.20;;;18.52;53.22;96314.47;10475009;28;2388;-75
2022/06/17 22:47:25;;;;;;;;;;;19.60;93.00;;;18.57;54.17;96306.13;10483100;28;2017;-75
2022/06/17 22:52:28;;;;;;;;;;;19.60;93.90;;;18.42;54.28;96300.28;10475935;28;1863;-74
2022/06/17 22:57:31;;;;;;;;;;;19.50;93.70;;;18.34;54.92;96294.50;10476177;28;1913;-77
2022/06/17 23:02:34;;;;;;;;;;;19.40;94.40;;;18.39;54.84;96306.38;10480738;28;1781;-76
2022/06/17 23:07:38;;;;;;;;;;;19.40;94.50;;;18.40;53.79;96318.88;10505345;28;1855;-74
2022/06/17 23:12:42;;;;;;;;;;;19.40;93.90;;;18.34;53.66;96310.81;10490297;28;1825;-75
2022/06/17 23:23:01;;;;;;;;;;;19.30;94.10;;;18.25;53.86;96307.22;10477227;28;1858;-75
2022/06/17 23:28:05;;;;;;;;;;;19.30;94.00;;;18.15;54.19;96310.19;10472906;28;1854;-75
2022/06/17 23:33:08;;;;;;;;;;;19.20;93.90;;;18.15;54.79;96302.03;10470442;28;1841;-74
2022/06/17 23:38:11;;;;;;;;;;;19.20;94.60;;;18.10;54.30;96302.97;10477782;28;1913;-74
2022/06/17 23:43:14;;;;;;;;;;;19.20;94.30;;;18.04;54.59;96306.91;10473976;28;1919;-74
2022/06/17 23:48:17;;;;;;;;;;;19.00;94.30;;;18.06;54.46;96299.22;10474050;28;2036;-74
2022/06/17 23:53:20;;;;;;;;;;;19.00;94.60;;;17.98;54.71;96304.63;10476950;28;1805;-74
2022/06/17 23:58:23;;;;;;;;;;;19.00;94.60;;;17.82;55.52;96299.53;10471155;28;1910;-74
